Time;durP1;ratioP1;P1;durP2;ratioP2;P2;SDS_P1;SDS_P2;PMS_P1;PMS_P2;Temp;Humidity;BMP_temperature;BMP_pressure;BME280_temperature;BME280_humidity;BME280_pressure;Samples;Min_cycle;Max_cycle;Signal;HPM_P1;HPM_P2
2022/06/03 00:01:25;;;;;;;;;;;;;;;12.77;33.86;95817.38;5051202;28;20485;-67
2022/06/03 00:04:05;;;;;;;;;;;;;;;12.86;33.83;95806.59;5056734;28;20263;-67
2022/06/03 00:06:53;;;;;;;;;;;;;;;12.79;34.00;95807.31;5063591;28;19973;-67
2022/06/03 00:09:22;;;;;;;;;;;;;;;12.84;34.02;95809.44;5063288;28;19989;-67
2022/06/03 00:11:47;;;;;;;;;;;;;;;12.91;33.57;95806.84;5044155;28;19981;-68
2022/06/03 00:14:27;;;;;;;;;;;;;;;13.07;33.59;95805.81;5063394;28;20011;-68
2022/06/03 00:17:05;;;;;;;;;;;;;;;13.08;33.10;95802.13;5060411;28;20467;-68
2022/06/03 00:19:33;;;;;;;;;;;;;;;13.16;33.42;95807.34;5062621;28;20476;-68
2022/06/03 00:22:03;;;;;;;;;;;;;;;13.17;33.44;95802.84;5062225;28;20084;-65
2022/06/03 00:24:47;;;;;;;;;;;;;;;13.10;33.23;95800.09;5062551;28;20401;-65
2022/06/03 00:27:15;;;;;;;;;;;;;;;13.05;33.16;95789.97;5062083;28;19963;-66
2022/06/03 00:29:56;;;;;;;;;;;;;;;13.15;33.64;95797.69;5062752;28;19955;-65
2022/06/03 00:32:24;;;;;;;;;;;;;;;13.03;33.67;95799.19;5059983;28;19978;-65
2022/06/03 00:35:01;;;;;;;;;;;;;;;13.16;32.95;95802.00;5055113;28;20042;-65
2022/06/03 00:37:31;;;;;;;;;;;;;;;13.09;33.22;95803.78;5059243;28;20026;-65
2022/06/03 00:40:15;;;;;;;;;;;;;;;13.13;32.92;95797.03;5062430;28;20383;-66
2022/06/03 00:42:49;;;;;;;;;;;;;;;13.14;33.37;95790.69;5060163;28;19987;-64
2022/06/03 00:45:50;;;;;;;;;;;;;;;13.23;33.02;95790.56;5062167;28;20453;-64
2022/06/03 00:48:36;;;;;;;;;;;;;;;13.22;32.84;95787.03;5008651;28;19985;-65
2022/06/03 00:51:01;;;;;;;;;;;;;;;13.18;33.22;95785.78;5027448;28;19971;-65
2022/06/03 00:53:26;;;;;;;;;;;;;;;13.15;33.28;95786.97;5065841;28;19981;-66
2022/06/03 00:56:13;;;;;;;;;;;;;;;13.26;32.94;95782.97;5066049;28;20350;-65
2022/06/03 00:58:59;;;;;;;;;;;;;;;13.22;33.08;95783.56;5077306;28;19967;-64
2022/06/03 01:01:25;;;;;;;;;;;;;;;13.09;33.25;95782.38;5059987;28;20028;-64
2022/06/03 01:04:02;;;;;;;;;;;;;;;13.11;33.44;95779.53;5065793;28;20464;-64
2022/06/03 01:06:27;;;;;;;;;;;;;;;12.96;33.33;95774.22;5065954;28;20046;-65
2022/06/03 01:08:58;;;;;;;;;;;;;;;12.88;34.24;95769.81;5065551;28;20094;-66
2022/06/03 01:11:36;;;;;;;;;;;;;;;12.94;33.28;95774.41;5052563;28;20051;-66
2022/06/03 01:14:05;;;;;;;;;;;;;;;12.94;33.60;95769.06;5062422;28;19964;-66
2022/06/03 01:16:31;;;;;;;;;;;;;;;12.90;33.65;95773.13;5080815;28;20419;-67
2022/06/03 01:18:56;;;;;;;;;;;;;;;12.85;33.39;95773.69;5064307;28;20005;-66
2022/06/03 01:21:40;;;;;;;;;;;;;;;12.96;33.54;95776.88;5065675;28;19996;-66
2022/06/03 01:24:05;;;;;;;;;;;;;;;13.03;33.30;95777.81;5064965;28;19990;-66
2022/06/03 01:26:31;;;;;;;;;;;;;;;12.98;33.14;95783.69;5066206;28;19966;-66
2022/06/03 01:28:56;;;;;;;;;;;;;;;13.04;32.83;95774.13;5064790;28;20000;-66
2022/06/03 01:31:24;;;;;;;;;;;;;;;13.07;32.71;95778.25;5060674;28;20260;-66
2022/06/03 01:33:58;;;;;;;;;;;;;;;13.02;33.01;95778.84;5066076;28;19961;-65
2022/06/03 01:36:32;;;;;;;;;;;;;;;13.11;32.91;95777.69;5065430;28;20040;-66
2022/06/03 01:38:57;;;;;;;;;;;;;;;12.78;33.84;95778.13;5057964;28;20400;-66
2022/06/03 01:41:23;;;;;;;;;;;;;;;12.90;33.36;95781.97;5042180;28;20027;-66
2022/06/03 01:43:59;;;;;;;;;;;;;;;12.99;32.84;95784.53;5055098;28;20392;-67
2022/06/03 01:46:28;;;;;;;;;;;;;;;13.03;33.07;95788.50;5079918;28;20423;-67
2022/06/03 01:48:53;;;;;;;;;;;;;;;13.00;33.22;95784.38;5052261;28;20046;-66
2022/06/03 01:51:27;;;;;;;;;;;;;;;13.08;33.05;95775.41;5064398;28;19985;-67
2022/06/03 01:53:53;;;;;;;;;;;;;;;13.03;32.89;95780.50;5052077;28;19965;-66
2022/06/03 01:56:21;;;;;;;;;;;;;;;12.91;33.29;95778.28;5064468;28;20045;-67
2022/06/03 01:58:52;;;;;;;;;;;;;;;12.91;32.88;95777.44;5051873;28;20396;-66
2022/06/03 02:01:27;;;;;;;;;;;;;;;12.99;32.68;95776.50;5062975;28;20222;-67
2022/06/03 02:03:55;;;;;;;;;;;;;;;12.87;33.26;95782.34;5063707;28;19992;-66
2022/06/03 02:06:36;;;;;;;;;;;;;;;12.82;33.28;95775.91;5064381;28;20283;-67
2022/06/03 02:09:20;;;;;;;;;;;;;;;12.59;33.50;95767.03;5051161;28;19992;-67
2022/06/03 02:11:51;;;;;;;;;;;;;;;12.72;33.11;95765.53;5056288;28;20001;-67
2022/06/03 02:14:25;;;;;;;;;;;;;;;12.58;33.73;95754.69;5059681;28;20448;-65
2022/06/03 02:16:56;;;;;;;;;;;;;;;12.53;33.42;95767.78;5038675;28;20059;-66
2022/06/03 02:19:24;;;;;;;;;;;;;;;12.50;33.88;95762.81;5058792;28;19964;-65
2022/06/03 02:21:52;;;;;;;;;;;;;;;12.48;33.54;95760.31;5057580;28;19998;-65
2022/06/03 02:24:22;;;;;;;;;;;;;;;12.47;33.16;95763.16;5063745;28;20127;-65
2022/06/03 02:27:06;;;;;;;;;;;;;;;12.35;33.40;95760.16;5040967;28;19975;-65
2022/06/03 02:32:45;;;;;;;;;;;;;;;12.21;33.98;95764.50;5049787;28;19988;-65
2022/06/03 02:35:25;;;;;;;;;;;;;;;12.26;33.65;95764.75;5028463;28;19993;-67
2022/06/03 02:37:59;;;;;;;;;;;;;;;12.21;33.76;95761.84;5057957;28;20177;-66
2022/06/03 02:40:30;;;;;;;;;;;;;;;12.16;33.66;95762.38;5057909;28;20441;-65
2022/06/03 02:42:56;;;;;;;;;;;;;;;12.00;34.38;95763.38;5060371;28;20497;-66
2022/06/03 02:45:21;;;;;;;;;;;;;;;11.88;34.60;95762.97;5063136;28;19999;-66
2022/06/03 02:47:50;;;;;;;;;;;;;;;11.97;34.58;95763.72;5034809;28;20015;-66
2022/06/03 02:50:21;;;;;;;;;;;;;;;11.98;34.45;95757.38;5061181;28;19981;-66
2022/06/03 02:52:47;;;;;;;;;;;;;;;11.96;34.63;95752.22;5053498;28;19986;-66
2022/06/03 02:55:19;;;;;;;;;;;;;;;12.06;34.57;95753.78;5060323;28;19967;-67
2022/06/03 02:58:03;;;;;;;;;;;;;;;12.19;34.09;95755.84;5036502;28;20452;-67
2022/06/03 03:00:51;;;;;;;;;;;;;;;12.27;33.75;95753.91;5053349;28;20201;-67
2022/06/03 03:03:36;;;;;;;;;;;;;;;11.99;35.02;95751.03;5076319;28;19965;-66
2022/06/03 03:06:20;;;;;;;;;;;;;;;11.92;34.86;95748.28;5062002;28;19970;-67
2022/06/03 03:09:09;;;;;;;;;;;;;;;12.01;34.37;95751.69;5051109;28;19998;-64
2022/06/03 03:11:49;;;;;;;;;;;;;;;12.10;34.34;95755.13;5040722;28;19986;-65
2022/06/03 03:14:23;;;;;;;;;;;;;;;12.02;34.77;95751.50;5062891;28;20167;-65
2022/06/03 03:16:48;;;;;;;;;;;;;;;11.93;34.46;95746.44;5049391;28;20115;-65
2022/06/03 03:19:13;;;;;;;;;;;;;;;12.03;34.69;95746.97;5063026;28;20326;-65
2022/06/03 03:21:59;;;;;;;;;;;;;;;11.92;34.99;95750.09;5049583;28;20057;-65
2022/06/03 03:24:30;;;;;;;;;;;;;;;11.96;34.36;95744.22;5035739;28;19992;-65
2022/06/03 03:27:01;;;;;;;;;;;;;;;11.72;34.82;95756.81;5060933;28;20019;-65
2022/06/03 03:29:27;;;;;;;;;;;;;;;11.71;35.52;95754.31;5062731;28;20427;-66
2022/06/03 03:31:52;;;;;;;;;;;;;;;11.82;35.23;95753.03;5062048;28;19996;-66
2022/06/03 03:34:20;;;;;;;;;;;;;;;11.95;35.75;95744.41;5062743;28;19963;-65
2022/06/03 03:37:04;;;;;;;;;;;;;;;11.81;35.43;95744.22;5049328;28;19987;-66
2022/06/03 03:39:35;;;;;;;;;;;;;;;11.72;35.65;95740.81;5052424;28;19964;-66
2022/06/03 03:42:04;;;;;;;;;;;;;;;11.61;35.37;95744.75;5060301;28;19995;-62
2022/06/03 03:44:35;;;;;;;;;;;;;;;11.59;36.25;95736.09;5044853;28;20033;-65
2022/06/03 03:47:09;;;;;;;;;;;;;;;11.57;35.86;95722.13;5055511;28;20422;-65
2022/06/03 03:49:52;;;;;;;;;;;;;;;11.41;35.50;95735.59;5062378;28;19994;-65
2022/06/03 03:52:25;;;;;;;;;;;;;;;11.57;35.86;95730.13;5031899;28;20031;-65
2022/06/03 03:54:55;;;;;;;;;;;;;;;11.54;35.80;95717.16;5032522;28;19976;-65
2022/06/03 03:57:39;;;;;;;;;;;;;;;11.48;36.33;95723.19;5064730;28;20428;-65
2022/06/03 04:00:23;;;;;;;;;;;;;;;11.02;36.18;95718.72;5030864;28;20001;-66
2022/06/03 04:03:07;;;;;;;;;;;;;;;11.32;36.41;95726.84;5061591;28;20318;-65
2022/06/03 04:05:42;;;;;;;;;;;;;;;11.44;35.55;95717.41;5049441;28;20012;-66
2022/06/03 04:08:23;;;;;;;;;;;;;;;11.49;37.00;95733.69;5062452;28;19992;-66
2022/06/03 04:10:51;;;;;;;;;;;;;;;10.94;37.41;95733.75;5049462;28;19966;-66
2022/06/03 04:13:16;;;;;;;;;;;;;;;10.61;37.82;95729.47;5062258;28;20082;-66
2022/06/03 04:15:41;;;;;;;;;;;;;;;10.69;37.72;95731.28;5057330;28;20077;-66
2022/06/03 04:18:16;;;;;;;;;;;;;;;10.82;38.26;95732.53;5062369;28;19989;-66
2022/06/03 04:21:08;;;;;;;;;;;;;;;10.57;39.04;95725.50;5043153;28;20618;-66
2022/06/03 04:23:52;;;;;;;;;;;;;;;10.51;38.27;95718.25;5027098;28;20073;-66
2022/06/03 04:26:17;;;;;;;;;;;;;;;10.14;39.16;95717.91;5065337;28;20360;-66
2022/06/03 04:28:43;;;;;;;;;;;;;;;10.30;39.19;95711.69;5065506;28;20434;-66
2022/06/03 04:31:34;;;;;;;;;;;;;;;10.44;38.76;95714.63;5066352;28;20489;-67
2022/06/03 04:34:13;;;;;;;;;;;;;;;10.84;38.20;95707.38;5069320;28;19994;-66
2022/06/03 04:36:53;;;;;;;;;;;;;;;11.31;37.46;95702.03;5064462;28;20003;-66
2022/06/03 04:39:39;;;;;;;;;;;;;;;11.42;36.62;95707.94;5056039;28;20434;-66
2022/06/03 04:42:23;;;;;;;;;;;;;;;11.29;36.91;95713.88;5042994;28;19981;-66
2022/06/03 04:45:07;;;;;;;;;;;;;;;11.58;36.38;95709.59;5059129;28;20237;-67
2022/06/03 04:47:41;;;;;;;;;;;;;;;11.82;35.84;95713.88;5064849;28;20928;-67
2022/06/03 04:50:30;;;;;;;;;;;;;;;12.31;35.20;95706.31;5065253;28;20087;-67
2022/06/03 04:53:05;;;;;;;;;;;;;;;12.75;34.79;95706.41;5080941;28;20795;-67
2022/06/03 04:55:39;;;;;;;;;;;;;;;12.73;34.43;95700.41;5064607;28;19984;-67
2022/06/03 04:58:13;;;;;;;;;;;;;;;12.87;34.59;95707.53;5064564;28;20450;-67
2022/06/03 05:00:54;;;;;;;;;;;;;;;13.04;33.86;95701.97;5054011;28;20554;-67
2022/06/03 05:03:38;;;;;;;;;;;;;;;13.19;33.53;95701.88;5052796;28;20423;-67
2022/06/03 05:06:20;;;;;;;;;;;;;;;13.28;33.79;95707.91;5065163;28;19960;-67
2022/06/03 05:09:04;;;;;;;;;;;;;;;13.62;33.56;95700.97;5039569;28;19991;-67
2022/06/03 05:11:29;;;;;;;;;;;;;;;13.63;33.20;95704.50;5063306;28;20039;-67
2022/06/03 05:14:13;;;;;;;;;;;;;;;13.70;33.11;95697.31;5065425;28;20257;-67
2022/06/03 05:16:57;;;;;;;;;;;;;;;13.51;33.20;95701.53;5054642;28;19980;-67
2022/06/03 05:19:35;;;;;;;;;;;;;;;13.27;33.65;95698.25;5064594;28;20440;-67
2022/06/03 05:22:19;;;;;;;;;;;;;;;13.16;34.26;95703.09;5063186;28;20048;-67
2022/06/03 05:25:04;;;;;;;;;;;;;;;13.46;34.12;95701.28;5073819;28;19992;-67
2022/06/03 05:27:29;;;;;;;;;;;;;;;13.83;33.19;95697.41;5064272;28;19966;-67
2022/06/03 05:30:07;;;;;;;;;;;;;;;14.34;32.76;95694.59;5065169;28;19954;-67
2022/06/03 05:32:51;;;;;;;;;;;;;;;14.40;32.92;95699.16;5063278;28;20017;-68
2022/06/03 05:35:35;;;;;;;;;;;;;;;14.71;32.39;95695.13;5071569;28;19990;-68
2022/06/03 05:38:00;;;;;;;;;;;;;;;15.08;31.77;95691.28;5053018;28;19972;-68
2022/06/03 05:40:44;;;;;;;;;;;;;;;15.19;31.77;95682.63;5057375;28;20443;-67
2022/06/03 05:43:09;;;;;;;;;;;;;;;15.47;31.12;95686.16;5050865;28;19972;-67
2022/06/03 05:45:53;;;;;;;;;;;;;;;15.57;31.11;95680.38;5055315;28;20168;-67
2022/06/03 05:48:20;;;;;;;;;;;;;;;15.57;31.13;95680.38;5053111;28;20196;-67
2022/06/03 05:50:55;;;;;;;;;;;;;;;15.61;31.04;95678.94;5045496;28;20029;-68
2022/06/03 05:53:33;;;;;;;;;;;;;;;15.84;30.98;95665.03;5063781;28;20513;-68
2022/06/03 05:55:58;;;;;;;;;;;;;;;15.72;30.65;95664.88;5064489;28;20448;-67
2022/06/03 05:58:42;;;;;;;;;;;;;;;16.00;30.46;95671.81;5060387;28;20037;-67
2022/06/03 06:01:07;;;;;;;;;;;;;;;16.27;29.62;95660.16;5061859;28;20264;-67
2022/06/03 06:03:35;;;;;;;;;;;;;;;16.48;29.03;95656.34;5051936;28;20014;-67
2022/06/03 06:06:03;;;;;;;;;;;;;;;16.61;30.20;95654.63;5064165;28;19958;-68
2022/06/03 06:08:31;;;;;;;;;;;;;;;16.74;29.26;95654.56;5061239;28;20017;-67
2022/06/03 06:10:57;;;;;;;;;;;;;;;16.99;29.13;95653.75;5040384;28;19966;-67
2022/06/03 06:13:27;;;;;;;;;;;;;;;16.90;28.24;95649.72;5052756;28;20071;-67
2022/06/03 06:15:58;;;;;;;;;;;;;;;17.09;28.23;95653.28;5074483;28;19981;-67
2022/06/03 06:18:38;;;;;;;;;;;;;;;17.24;28.05;95652.16;5069418;28;19951;-67
2022/06/03 06:21:22;;;;;;;;;;;;;;;17.37;28.04;95649.34;5062698;28;20025;-67
2022/06/03 06:24:06;;;;;;;;;;;;;;;17.49;28.76;95649.44;5051365;28;20033;-68
2022/06/03 06:26:31;;;;;;;;;;;;;;;17.51;27.86;95649.22;5065222;28;20328;-67
2022/06/03 06:29:05;;;;;;;;;;;;;;;17.64;27.77;95656.38;5064421;28;19974;-68
2022/06/03 06:31:39;;;;;;;;;;;;;;;17.78;27.11;95651.66;5046216;28;19952;-67
2022/06/03 06:34:04;;;;;;;;;;;;;;;17.92;27.44;95649.66;5054285;28;19952;-71
2022/06/03 06:36:48;;;;;;;;;;;;;;;18.07;27.18;95649.28;5061433;28;20010;-67
2022/06/03 06:39:13;;;;;;;;;;;;;;;18.25;27.13;95650.34;5054462;28;19943;-68
2022/06/03 06:42:01;;;;;;;;;;;;;;;18.35;26.91;95657.88;5060629;28;19976;-67
2022/06/03 06:44:36;;;;;;;;;;;;;;;18.23;26.39;95647.84;5079681;28;20359;-67
2022/06/03 06:47:05;;;;;;;;;;;;;;;18.18;26.20;95647.69;5062279;28;20422;-67
2022/06/03 06:49:43;;;;;;;;;;;;;;;17.85;26.35;95659.66;5063907;28;19974;-67
2022/06/03 06:52:23;;;;;;;;;;;;;;;18.49;26.05;95656.63;5034751;28;19963;-67
2022/06/03 06:54:48;;;;;;;;;;;;;;;18.92;25.59;95664.78;5075805;28;19979;-67
2022/06/03 06:57:24;;;;;;;;;;;;;;;18.60;25.47;95663.16;5059490;28;19960;-66
2022/06/03 06:59:51;;;;;;;;;;;;;;;18.85;25.50;95670.28;5040279;28;19956;-66
2022/06/03 07:02:33;;;;;;;;;;;;;;;19.05;25.87;95667.28;5067790;28;19971;-66
2022/06/03 07:05:07;;;;;;;;;;;;;;;18.97;26.22;95666.78;5065202;28;19967;-69
2022/06/03 07:07:37;;;;;;;;;;;;;;;19.20;25.08;95664.13;5058961;28;19946;-66
2022/06/03 07:10:05;;;;;;;;;;;;;;;19.24;24.79;95666.38;5067008;28;19984;-66
2022/06/03 07:12:34;;;;;;;;;;;;;;;19.32;24.59;95669.59;5053815;28;19962;-66
2022/06/03 07:15:20;;;;;;;;;;;;;;;19.18;25.31;95668.13;5062191;28;19948;-66
2022/06/03 07:20:52;;;;;;;;;;;;;;;19.46;24.88;95674.75;5072354;28;19965;-66
2022/06/03 07:23:33;;;;;;;;;;;;;;;19.40;25.78;95673.81;5052524;28;20008;-66
2022/06/03 07:26:06;;;;;;;;;;;;;;;19.59;24.38;95673.72;5053416;28;20021;-66
2022/06/03 07:28:33;;;;;;;;;;;;;;;19.67;24.83;95675.22;5036747;28;20431;-69
2022/06/03 07:31:04;;;;;;;;;;;;;;;19.86;25.06;95665.13;5054655;28;19949;-66
2022/06/03 07:33:29;;;;;;;;;;;;;;;19.62;24.11;95667.00;5058031;28;19957;-66
2022/06/03 07:35:56;;;;;;;;;;;;;;;19.98;23.83;95670.53;5040581;28;19977;-66
2022/06/03 07:38:24;;;;;;;;;;;;;;;19.65;24.11;95669.25;5063254;28;19942;-66
2022/06/03 07:41:03;;;;;;;;;;;;;;;19.73;24.68;95658.09;5039018;28;19983;-66
2022/06/03 07:43:30;;;;;;;;;;;;;;;20.12;24.06;95646.75;5049649;28;19996;-66
2022/06/03 07:45:56;;;;;;;;;;;;;;;20.36;23.59;95644.81;5045758;28;19938;-66
2022/06/03 07:48:24;;;;;;;;;;;;;;;20.49;23.91;95648.28;5044782;28;19971;-66
2022/06/03 07:50:58;;;;;;;;;;;;;;;20.70;23.59;95636.00;5046420;28;20467;-65
2022/06/03 07:53:26;;;;;;;;;;;;;;;20.95;22.92;95634.00;5034191;28;20006;-66
2022/06/03 07:55:53;;;;;;;;;;;;;;;20.82;22.98;95630.53;5054185;28;19955;-65
2022/06/03 07:58:19;;;;;;;;;;;;;;;21.15;22.95;95627.28;5067702;28;19949;-65
2022/06/03 08:00:45;;;;;;;;;;;;;;;21.45;22.44;95628.88;5067378;28;20242;-65
2022/06/03 08:03:19;;;;;;;;;;;;;;;21.45;22.53;95637.78;5056289;28;20592;-65
2022/06/03 08:05:45;;;;;;;;;;;;;;;21.72;22.21;95637.09;5060775;28;19968;-65
2022/06/03 08:11:00;;;;;;;;;;;;;;;22.07;22.46;95632.44;5057279;28;20408;-66
2022/06/03 08:13:26;;;;;;;;;;;;;;;22.44;22.70;95624.72;5060994;28;19958;-65
2022/06/03 08:15:57;;;;;;;;;;;;;;;22.30;22.78;95627.84;5063295;28;20524;-65
2022/06/03 08:18:22;;;;;;;;;;;;;;;22.49;21.21;95616.63;5065593;28;20222;-64
2022/06/03 08:20:50;;;;;;;;;;;;;;;22.53;21.51;95623.22;5043642;28;20612;-65
2022/06/03 08:23:16;;;;;;;;;;;;;;;22.23;21.75;95624.50;5068539;28;20384;-65
2022/06/03 08:25:41;;;;;;;;;;;;;;;22.64;22.76;95624.16;5040340;28;19927;-64
2022/06/03 08:28:07;;;;;;;;;;;;;;;22.69;21.06;95628.78;5074625;28;20003;-65
2022/06/03 08:30:32;;;;;;;;;;;;;;;22.96;21.57;95634.22;5062452;28;20289;-65
2022/06/03 08:33:04;;;;;;;;;;;;;;;22.84;21.51;95639.00;5065841;28;20482;-65
2022/06/03 08:35:31;;;;;;;;;;;;;;;22.95;22.04;95629.03;5039434;28;19967;-65
2022/06/03 08:38:02;;;;;;;;;;;;;;;22.71;21.68;95629.38;5057814;28;19953;-65
2022/06/03 08:40:46;;;;;;;;;;;;;;;23.01;21.75;95628.81;5070215;28;20329;-66
2022/06/03 08:43:12;;;;;;;;;;;;;;;23.51;21.29;95625.97;5056370;28;20430;-67
2022/06/03 08:45:44;;;;;;;;;;;;;;;23.59;21.48;95624.66;5062642;28;19920;-66
2022/06/03 08:48:13;;;;;;;;;;;;;;;23.46;20.93;95627.84;5061411;28;20078;-65
2022/06/03 08:50:38;;;;;;;;;;;;;;;24.00;20.93;95631.44;5060254;28;20395;-65
2022/06/03 08:53:12;;;;;;;;;;;;;;;24.13;20.29;95628.22;5055341;28;19962;-66
2022/06/03 08:55:45;;;;;;;;;;;;;;;24.29;20.81;95625.56;5055645;28;20344;-65
2022/06/03 08:58:30;;;;;;;;;;;;;;;24.27;19.71;95625.81;5063222;28;19927;-66
2022/06/03 09:01:03;;;;;;;;;;;;;;;24.27;20.27;95627.75;5073722;28;20379;-65
2022/06/03 09:03:29;;;;;;;;;;;;;;;24.67;21.21;95637.13;5053704;28;20455;-65
2022/06/03 09:06:18;;;;;;;;;;;;;;;24.34;21.94;95631.06;5064315;28;19924;-67
2022/06/03 09:08:49;;;;;;;;;;;;;;;24.50;20.14;95640.06;5062690;28;19966;-66
2022/06/03 09:11:20;;;;;;;;;;;;;;;24.73;20.23;95637.94;5071254;28;20377;-65
2022/06/03 09:13:45;;;;;;;;;;;;;;;25.12;20.45;95638.56;5064590;28;20375;-66
2022/06/03 09:16:11;;;;;;;;;;;;;;;25.43;19.82;95631.19;5063331;28;20302;-65
2022/06/03 09:18:41;;;;;;;;;;;;;;;25.77;19.56;95629.00;5063888;28;19920;-66
2022/06/03 09:21:11;;;;;;;;;;;;;;;25.36;19.39;95627.94;5038141;28;20832;-65
2022/06/03 09:23:37;;;;;;;;;;;;;;;25.65;19.66;95618.38;5054390;28;19974;-65
2022/06/03 09:26:03;;;;;;;;;;;;;;;25.58;20.98;95611.31;5061342;28;19916;-65
2022/06/03 09:28:31;;;;;;;;;;;;;;;25.60;20.83;95617.28;5055881;28;20344;-65
2022/06/03 09:30:57;;;;;;;;;;;;;;;25.66;19.01;95606.41;5070581;28;19924;-66
2022/06/03 09:33:23;;;;;;;;;;;;;;;25.68;18.90;95598.75;5069252;28;20341;-66
2022/06/03 09:35:48;;;;;;;;;;;;;;;26.04;19.54;95604.09;5072708;28;20529;-65
2022/06/03 09:38:13;;;;;;;;;;;;;;;25.90;19.06;95601.13;5070877;28;19956;-65
2022/06/03 09:40:45;;;;;;;;;;;;;;;26.20;19.93;95596.69;5030986;28;20409;-65
2022/06/03 09:43:14;;;;;;;;;;;;;;;26.36;20.09;95602.06;5061171;28;19934;-65
2022/06/03 09:45:39;;;;;;;;;;;;;;;26.50;19.10;95600.34;5035836;28;19916;-65
2022/06/03 09:48:04;;;;;;;;;;;;;;;26.65;20.42;95601.38;5029881;28;20000;-65
2022/06/03 09:50:30;;;;;;;;;;;;;;;26.95;19.09;95607.69;5059385;28;19970;-65
2022/06/03 09:53:03;;;;;;;;;;;;;;;26.80;19.53;95618.75;5048472;28;20049;-65
2022/06/03 09:55:30;;;;;;;;;;;;;;;27.24;17.70;95604.22;5058415;28;19916;-65
2022/06/03 09:57:57;;;;;;;;;;;;;;;27.24;19.38;95603.41;5039451;28;19917;-65
2022/06/03 10:00:24;;;;;;;;;;;;;;;27.20;18.51;95605.91;5045916;28;19973;-67
2022/06/03 10:02:49;;;;;;;;;;;;;;;27.84;18.97;95607.75;5059670;28;19936;-65
2022/06/03 10:05:16;;;;;;;;;;;;;;;27.91;18.97;95601.94;5041859;28;19924;-67
2022/06/03 10:07:41;;;;;;;;;;;;;;;27.96;16.95;95604.63;5066240;28;20287;-65
2022/06/03 10:12:56;;;;;;;;;;;;;;;28.32;17.25;95597.91;5068867;28;20415;-65
2022/06/03 10:15:42;;;;;;;;;;;;;;;28.45;17.61;95596.34;5059972;28;19924;-65
2022/06/03 10:18:14;;;;;;;;;;;;;;;28.63;17.79;95597.47;5052733;28;19923;-66
2022/06/03 10:20:39;;;;;;;;;;;;;;;28.64;17.33;95598.28;5055659;28;19924;-65
2022/06/03 10:23:04;;;;;;;;;;;;;;;28.67;17.77;95595.81;5041099;28;20089;-65
2022/06/03 10:25:31;;;;;;;;;;;;;;;28.65;19.01;95600.72;5076403;28;19963;-67
2022/06/03 10:28:00;;;;;;;;;;;;;;;28.81;18.73;95594.25;5056914;28;19928;-66
2022/06/03 10:30:26;;;;;;;;;;;;;;;29.07;16.68;95599.31;5053730;28;19917;-65
2022/06/03 10:32:52;;;;;;;;;;;;;;;29.03;16.78;95594.41;5058972;28;19969;-66
2022/06/03 10:35:17;;;;;;;;;;;;;;;28.80;17.11;95590.69;5057242;28;19965;-67
2022/06/03 10:37:46;;;;;;;;;;;;;;;29.18;17.70;95598.03;5058023;28;19962;-66
2022/06/03 10:40:12;;;;;;;;;;;;;;;29.37;16.88;95589.75;5056503;28;19924;-65
2022/06/03 10:42:40;;;;;;;;;;;;;;;29.03;19.14;95602.63;5030057;28;20428;-65
2022/06/03 10:45:06;;;;;;;;;;;;;;;29.39;18.76;95593.03;5039279;28;19924;-66
2022/06/03 10:47:33;;;;;;;;;;;;;;;29.29;17.50;95590.47;5072792;28;19917;-66
2022/06/03 10:49:59;;;;;;;;;;;;;;;29.45;18.42;95596.50;5060378;28;20356;-66
2022/06/03 11:03:28;;;;;;;;;;;;;;;29.37;17.02;95589.75;5055826;28;19959;-66
2022/06/03 11:05:53;;;;;;;;;;;;;;;29.56;18.29;95589.69;5051185;28;19920;-66
2022/06/03 11:08:19;;;;;;;;;;;;;;;29.62;17.99;95581.38;5052899;28;19924;-65
2022/06/03 11:10:45;;;;;;;;;;;;;;;30.18;18.10;95578.69;5063774;28;20472;-66
2022/06/03 11:13:11;;;;;;;;;;;;;;;30.06;17.25;95565.44;5054968;28;19967;-65
2022/06/03 11:15:40;;;;;;;;;;;;;;;30.33;16.11;95570.13;5060573;28;20327;-65
2022/06/03 11:18:12;;;;;;;;;;;;;;;29.91;16.85;95572.06;5053852;28;20321;-65
2022/06/03 11:20:39;;;;;;;;;;;;;;;30.78;17.04;95567.75;5038049;28;19924;-66
2022/06/03 11:23:07;;;;;;;;;;;;;;;30.90;17.49;95558.97;5057201;28;19943;-63
2022/06/03 11:25:32;;;;;;;;;;;;;;;30.54;16.34;95555.91;5051745;28;20491;-63
2022/06/03 11:28:18;;;;;;;;;;;;;;;30.68;16.83;95541.34;5059121;28;19928;-64
2022/06/03 11:30:51;;;;;;;;;;;;;;;30.63;16.07;95541.44;5041354;28;20561;-64
2022/06/03 11:33:19;;;;;;;;;;;;;;;30.06;16.11;95559.97;5052315;28;19924;-63
2022/06/03 11:35:45;;;;;;;;;;;;;;;29.87;17.62;95546.38;5052414;28;20265;-63
2022/06/03 11:38:13;;;;;;;;;;;;;;;29.87;16.85;95533.44;5050060;28;19920;-63
2022/06/03 11:40:39;;;;;;;;;;;;;;;29.71;17.15;95538.47;5039875;28;19990;-65
2022/06/03 11:43:31;;;;;;;;;;;;;;;30.08;16.64;95539.31;5076216;28;20147;-63
2022/06/03 11:46:02;;;;;;;;;;;;;;;29.78;17.40;95527.88;5012345;28;20485;-64
2022/06/03 11:48:35;;;;;;;;;;;;;;;30.12;18.01;95538.72;5035121;28;20428;-64
2022/06/03 11:51:01;;;;;;;;;;;;;;;30.06;18.11;95541.56;5053542;28;19946;-65
2022/06/03 11:53:27;;;;;;;;;;;;;;;29.93;17.39;95539.66;5031261;28;20377;-64
2022/06/03 11:55:52;;;;;;;;;;;;;;;30.47;17.81;95544.53;5054259;28;19924;-65
2022/06/03 11:58:29;;;;;;;;;;;;;;;30.56;16.52;95539.13;5035670;28;20419;-65
2022/06/03 12:01:02;;;;;;;;;;;;;;;30.94;16.67;95544.28;5069279;28;19969;-65
2022/06/03 12:03:38;;;;;;;;;;;;;;;31.35;17.35;95542.44;5070699;28;20270;-65
2022/06/03 12:06:05;;;;;;;;;;;;;;;30.92;16.58;95534.72;5067959;28;20365;-65
2022/06/03 12:08:42;;;;;;;;;;;;;;;31.23;18.87;95542.19;5056932;28;19938;-65
2022/06/03 12:11:09;;;;;;;;;;;;;;;31.34;18.07;95543.56;5060275;28;19917;-65
2022/06/03 12:13:34;;;;;;;;;;;;;;;31.26;16.94;95541.56;5038256;28;19921;-64
2022/06/03 12:16:10;;;;;;;;;;;;;;;30.81;17.15;95545.97;5047767;28;20282;-65
2022/06/03 12:18:37;;;;;;;;;;;;;;;31.17;15.79;95540.72;5060227;28;19916;-65
2022/06/03 12:21:05;;;;;;;;;;;;;;;31.17;16.77;95540.72;5056539;28;19931;-64
2022/06/03 12:23:36;;;;;;;;;;;;;;;30.57;16.94;95533.34;5050442;28;20297;-64
2022/06/03 12:26:20;;;;;;;;;;;;;;;30.83;18.28;95540.97;5055132;28;19912;-65
2022/06/03 12:28:47;;;;;;;;;;;;;;;30.98;16.00;95541.72;5054342;28;20409;-65
2022/06/03 12:31:19;;;;;;;;;;;;;;;31.19;18.03;95539.28;5058605;28;20373;-64
2022/06/03 12:33:55;;;;;;;;;;;;;;;30.97;17.31;95526.38;5061425;28;19916;-65
2022/06/03 12:36:24;;;;;;;;;;;;;;;31.20;17.18;95529.13;5056494;28;19958;-65
2022/06/03 12:39:01;;;;;;;;;;;;;;;31.22;16.62;95524.09;5053697;28;20324;-66
2022/06/03 12:41:52;;;;;;;;;;;;;;;31.41;16.66;95523.06;5049817;28;19936;-65
2022/06/03 12:44:36;;;;;;;;;;;;;;;31.38;16.59;95527.25;5050528;28;19932;-65
2022/06/03 12:47:20;;;;;;;;;;;;;;;30.80;17.50;95533.38;5052879;28;19927;-65
2022/06/03 12:49:47;;;;;;;;;;;;;;;30.69;17.10;95537.50;5049788;28;19968;-65
2022/06/03 12:52:25;;;;;;;;;;;;;;;30.66;18.23;95533.41;5059022;28;19924;-65
2022/06/03 12:54:50;;;;;;;;;;;;;;;31.13;18.07;95537.00;5061394;28;19927;-66
2022/06/03 12:57:23;;;;;;;;;;;;;;;31.38;16.26;95541.00;5060488;28;20125;-65
2022/06/03 12:59:52;;;;;;;;;;;;;;;31.67;18.26;95536.13;5059134;28;20487;-65
2022/06/03 13:02:21;;;;;;;;;;;;;;;31.90;17.31;95538.78;5062228;28;19974;-65
2022/06/03 13:04:52;;;;;;;;;;;;;;;31.99;18.21;95543.16;5037701;28;19924;-65
2022/06/03 13:07:27;;;;;;;;;;;;;;;31.86;18.00;95533.09;5055338;28;20003;-65
2022/06/03 13:09:53;;;;;;;;;;;;;;;32.40;16.99;95534.03;5048003;28;19920;-66
2022/06/03 13:12:20;;;;;;;;;;;;;;;32.15;17.95;95531.72;5062283;28;19920;-65
2022/06/03 13:14:46;;;;;;;;;;;;;;;32.52;18.05;95528.69;5037542;28;19924;-66
2022/06/03 13:17:31;;;;;;;;;;;;;;;32.92;16.31;95521.38;5062720;28;19974;-66
2022/06/03 13:19:57;;;;;;;;;;;;;;;32.99;16.43;95519.78;5058942;28;20479;-65
2022/06/03 13:22:25;;;;;;;;;;;;;;;32.92;15.63;95530.47;5059302;28;19931;-65
2022/06/03 13:25:09;;;;;;;;;;;;;;;32.97;16.13;95529.47;5070934;28;20237;-65
2022/06/03 13:27:35;;;;;;;;;;;;;;;33.18;17.04;95537.06;5062699;28;19921;-65
2022/06/03 13:30:01;;;;;;;;;;;;;;;33.70;15.10;95532.53;5062682;28;20442;-66
2022/06/03 13:32:35;;;;;;;;;;;;;;;34.04;15.61;95536.28;5062526;28;19921;-66
2022/06/03 13:35:19;;;;;;;;;;;;;;;33.98;15.32;95543.16;5062545;28;19997;-65
2022/06/03 13:37:46;;;;;;;;;;;;;;;34.44;15.76;95526.75;5055141;28;19952;-66